Startpagina
METAR-TAF:

METAR-TAF

Vliegvelden :

Bagdad, Irak

Internationale Luchthaven Baghdad

breedte: 33-15-45N, lengte: 44-14-04E, hoogte: 35 m

Actueel weer

Dit bericht is 6 minuten geleden gemaakt, om 06:30 UTC
Wind 11 kt uit het noordwesten
Temperatuur 40°C
Vochtigheid 18%
Druk 1002 hPa
Zicht 10 km of meer
geen wolken onder 1500 m en geen cumulonimbus

METAR: ORBI 220630Z 32011KT CAVOK 40/11 Q1002

Tijdstip: 09:36 (06:36 UTC)

Verwachting

Dit bericht is 2 uur en het 36 minuten geleden gemaakt, om 04:00 UTC
Verwachting geldig van 22 om 06 UTC tot 23 om 06 UTC
Wind 12 kt uit het noordwesten
Zicht 10 km of meer
geen wolken onder 1500 m en geen cumulonimbus

TAF: ORBI 220400Z 2206/2306 32012KT CAVOK

Waarnemingen en weersverwachtingen van meer dan 4000 vliegvelden (METAR en TAF).

De beschikbare stations zijn de gele en rode punten op de kaart.

Ga met uw muis naar het station om de naam te zien.

Klik dan om waarnemingen en weersverwachtingen te zien.

kaart wijzigen: klik op de groene knoppen met een zwart kruis om in te zoomen, op de groene knop met een streepje om uit te zoomen of op de groene pijlen voor aangrenzende kaarten.


METAR-TAF: